Surface observations / Quebec / CYHU (71371)

Quebec | Canada | USA | France | UK | Europe | Elsewhere

Display: Info & Location for CYHU (71371) | Help decoding METAR

CYHU MONTREAL/ST HUBERT A QB CN
Raw surface observations for station CYHU
CYHU 280300Z AUTO 05005KT 9SM OVC080 09/05 A2982 RMK SLP100=
CYHU 280200Z AUTO 02004KT 9SM FEW050 OVC085 10/06 A2982 RMK SLP100=
CYHU 280121Z AUTO 03006KT 9SM FEW050 SCT060 OVC083 10/06 A2982 RMK SLP097=
CYHU 280111Z AUTO 04007KT 9SM -RA FEW050 SCT060 OVC079 09/06 A2982 RMK SLP098=
CYHU 280100Z AUTO 04004KT 9SM SCT049 OVC075 10/06 A2982 RMK SLP097=
CYHU 280000Z AUTO 05007KT 9SM SCT055 SCT068 OVC081 12/05 A2980 RMK SLP092=
CYHU 272300Z AUTO 04016G25KT 9SM OVC048 13/05 A2977 RMK SLP082=
CYHU 272241Z AUTO 03020G26KT 9SM BKN048 OVC060 13/05 A2976 RMK SLP079=
CYHU 272200Z AUTO 36009KT 9SM FEW034 OVC055 13/06 A2975 RMK SLP074=
CYHU 272153Z AUTO 36010KT 9SM FEW038 OVC055 13/07 A2974 RMK SLP073=
CYHU 272128Z AUTO 35007KT 9SM -RA BKN048 OVC055 13/06 A2974 RMK SLP072=
CYHU 272100Z AUTO 35007KT 9SM BKN050 OVC070 13/06 A2973 RMK SLP069=
CYHU 272035Z AUTO 35007KT 9SM SCT042 BKN060 OVC071 13/05 A2973 RMK SLP069=
CYHU 272004Z AUTO 35009G15KT 9SM -RA BKN042 OVC055 13/05 A2974 RMK SLP070=
CYHU 272000Z AUTO 01009G15KT 9SM BKN042 OVC055 13/04 A2974 RMK SLP070=
CYHU 271900Z AUTO 02011G16KT 9SM BKN037 13/04 A2974 RMK SLP071=
CYHU 271800Z AUTO 36012KT 9SM OVC033 11/04 A2975 RMK SLP075=
CYHU 271700Z AUTO 35013KT 9SM OVC033 11/04 A2975 RMK SLP074=
CYHU 271600Z AUTO 36012G19KT 9SM BKN028 BKN033 OVC041 10/04 A2974 RMK SLP072=
CYHU 271500Z AUTO 03009KT 9SM -RA FEW019 SCT024 OVC032 09/05 A2974 RMK SLP073=
CYHU 271443Z AUTO 02010KT 9SM -RA SCT022 OVC032 09/05 A2974 RMK SLP072=
CYHU 271436Z AUTO 01011KT 9SM -RA BKN022 OVC030 09/04 A2974 RMK SLP071=
CYHU 271400Z AUTO 02011G16KT 9SM BKN020 BKN037 BKN075 09/04 A2973 RMK SLP067=
CYHU 271358Z AUTO 01012KT 320V020 9SM BKN020 BKN037 BKN075 09/04 A2972 RMK SLP066=